Detall de PIREP

Printer-friendly versionPDF version

[2013/11/18 10:45:00]
Flight IATA:CT3248
Pilot Number:042
Company ICAO:CAT
Aircraft Type:MD11/E
PAX:185
Aircraft Registration:PAX
Departing Airport: LEPA
Destination Airport: LOWW
Alternate Airport:LIZB
Online: VATSIM
Route:MEROS UN853 LUMAS UM985 VESAL/N0400F360 UM985 NIMDU
Flight Level:F360
No Slew and time accel
No pause
Crash detect
Detect pilot in Cockpit between each 30 and 45 minutes
10:45 Zero fuel Weight: 377796 Lbs, Fuel Weight: 110055 Lbs
10:45 VATSIM:LEPA 181030Z VRB02KT 9999 FEW001 SCT035 BKN060 12/11 Q1002 NOSIG
10:45 VATSIM:LOWW 181020Z 14024KT 6000 BKN009 BKN250 07/05 Q1016 TEMPO SCT009 BKN250
10:45 VOICE CATALONIAROUTE IATA CT3248
10:50 Parking Brakes off
10:58 Take-off
10:58 Take off Weight: 486369 Lbs
10:58 Wind: 271º @ 007 Knots Heading: 239º
10:58 POS N39º 33´ 09´´ E002º 43´ 19´´
10:58 Gear Up: 176 Knots
10:58 Flaps:5 at 176 Knots
10:59 Flaps:4 at 192 Knots
10:59 Flaps:3 at 191 Knots
10:59 Flaps:2 at 193 Knots
10:59 Flaps:1 at 194 Knots
11:00 Flaps:0 at 244 Knots
11:13 Wind:240º@040 Knots Heading: 058º Ground Speed: 518 Knots Altitude 30685 ft
11:17 TOC
11:17 Fuel Weight: 97420 Lb
11:28 Wind:025º@029 Knots Heading: 011º Ground Speed: 436 Knots Altitude 35751 ft
11:43 Wind:355º@093 Knots Heading: 031º Ground Speed: 394 Knots Altitude 35790 ft
11:58 Wind:355º@065 Knots Heading: 048º Ground Speed: 427 Knots Altitude 36000 ft
12:13 Wind:075º@017 Knots Heading: 032º Ground Speed: 450 Knots Altitude 36108 ft
12:28 Wind:130º@025 Knots Heading: 071º Ground Speed: 453 Knots Altitude 36066 ft
12:43 Wind:040º@022 Knots Heading: 069º Ground Speed: 442 Knots Altitude 36072 ft
12:45 TOD
12:45 Fuel Weight: 74984 Lb
12:58 Wind:145º@047 Knots Heading: 356º Ground Speed: 402 Knots Altitude 18018 ft
12:59 Flaps:1 at 286 Knots
12:59 Flaps:0 at 286 Knots
13:04 Gear Down: 243 Knots
13:04 Gear Up: 242 Knots
13:05 Flaps:1 at 242 Knots
13:05 Flaps:2 at 244 Knots
13:05 Flaps:3 at 244 Knots
13:13 Wind:140º@012 Knots Heading: 117º Ground Speed: 188 Knots Altitude 3530 ft
13:14 Gear Down: 198 Knots
13:14 Flaps:4 at 197 Knots
13:14 Flaps:3 at 196 Knots
13:14 Flaps:4 at 196 Knots
13:14 Flaps:5 at 193 Knots
13:14 Flaps:6 at 190 Knots
13:14 Flaps:7 at 185 Knots
13:17 TouchDown:Rate -486 ft/min Speed: 166 Knots
13:17 VATSIM:LOWW 181250Z 14025KT 7000 FEW012 BKN014 08/05 Q1015 TEMPO FEW010 SCT013
13:17 Land
13:17 Wind:188º@024 Knots
13:17 Heading: 116º
13:17 Flight Duration: 02:19
13:17 Landing Weight: 445566 Lbs
13:17 POS N48º 06´ 59´´ E016º 33´ 06´´
13:22 Parking brakes on
13:22 Block to Block Duration: 02:32
13:22 Final Fuel: 67045 Lbls
13:22 Spent Fuel: 43009 Lbls
13:22Flight Length: 944 NM
13:22 TOD Land Length: 167 NM

Exportar CSV

Powered by Drupal - Modified by Danger4k